REV163 EGBB-EGTK
Flight info
| Callsign | REV163 |
|---|---|
| Flight time | 0h 18m |
| Altitude | 7000 |
| Route | DTY |
| Aircraft | F406/L-SDFGIRY/S |
Departure
| Time | 2026-04-25 06:47 |
|---|---|
| Airport | Birmingham Airport (EGBB) |
Arrival
| Time | 2026-04-25 07:05 |
|---|---|
| Airport | London Oxford Airport (EGTK) |
| Time | Latitude | Longitude | Altitude | Speed | Heading |
|---|---|---|---|---|---|
| 2026-04-25 06:23 | 52.44962 | -1.74787 | 323 ft | 0 kts | 236° |
| 2026-04-25 06:33 | 52.44960 | -1.74794 | 296 ft | 5 kts | 253° |
| 2026-04-25 06:33 | 52.44964 | -1.74836 | 323 ft | 0 kts | 338° |
| 2026-04-25 06:34 | 52.44966 | -1.74836 | 323 ft | 1 kts | 356° |
| 2026-04-25 06:34 | 52.45013 | -1.74778 | 323 ft | 12 kts | 30° |
| 2026-04-25 06:34 | 52.45057 | -1.74783 | 323 ft | 7 kts | 322° |
| 2026-04-25 06:35 | 52.45115 | -1.74855 | 323 ft | 14 kts | 327° |
| 2026-04-25 06:35 | 52.45188 | -1.74941 | 323 ft | 2 kts | 278° |
| 2026-04-25 06:35 | 52.45178 | -1.74989 | 321 ft | 8 kts | 250° |
| 2026-04-25 06:35 | 52.45170 | -1.75076 | 323 ft | 6 kts | 300° |
| 2026-04-25 06:36 | 52.45217 | -1.75132 | 322 ft | 13 kts | 332° |
| 2026-04-25 06:36 | 52.45267 | -1.75099 | 321 ft | 15 kts | 57° |
| 2026-04-25 06:36 | 52.45314 | -1.74985 | 319 ft | 4 kts | 57° |
| 2026-04-25 06:36 | 52.45316 | -1.74980 | 319 ft | 0 kts | 57° |
| 2026-04-25 06:37 | 52.45330 | -1.74942 | 318 ft | 8 kts | 59° |
| 2026-04-25 06:37 | 52.45375 | -1.74830 | 318 ft | 14 kts | 58° |
| 2026-04-25 06:37 | 52.45432 | -1.74688 | 318 ft | 17 kts | 56° |
| 2026-04-25 06:38 | 52.45493 | -1.74602 | 318 ft | 6 kts | 347° |
| 2026-04-25 06:38 | 52.45533 | -1.74652 | 318 ft | 11 kts | 321° |
| 2026-04-25 06:38 | 52.45621 | -1.74741 | 312 ft | 19 kts | 330° |
| 2026-04-25 06:38 | 52.45734 | -1.74866 | 306 ft | 19 kts | 323° |
| 2026-04-25 06:39 | 52.45855 | -1.74997 | 301 ft | 22 kts | 324° |
| 2026-04-25 06:39 | 52.45987 | -1.75137 | 302 ft | 23 kts | 324° |
| 2026-04-25 06:39 | 52.46112 | -1.75276 | 299 ft | 22 kts | 325° |
| 2026-04-25 06:39 | 52.46196 | -1.75376 | 300 ft | 14 kts | 327° |
| 2026-04-25 06:40 | 52.46291 | -1.75481 | 297 ft | 17 kts | 323° |
| 2026-04-25 06:40 | 52.46399 | -1.75600 | 296 ft | 20 kts | 328° |
| 2026-04-25 06:40 | 52.46500 | -1.75709 | 297 ft | 15 kts | 325° |
| 2026-04-25 06:40 | 52.46582 | -1.75802 | 300 ft | 12 kts | 325° |
| 2026-04-25 06:41 | 52.46634 | -1.75877 | 303 ft | 4 kts | 288° |
| 2026-04-25 06:41 | 52.46626 | -1.75951 | 300 ft | 6 kts | 236° |
| 2026-04-25 06:41 | 52.46625 | -1.75953 | 300 ft | 0 kts | 230° |
| 2026-04-25 06:42 | 52.46622 | -1.75960 | 300 ft | 0 kts | 234° |
| 2026-04-25 06:43 | 52.46621 | -1.75962 | 303 ft | 0 kts | 237° |
| 2026-04-25 06:44 | 52.46620 | -1.75965 | 302 ft | 2 kts | 234° |
| 2026-04-25 06:44 | 52.46577 | -1.76041 | 300 ft | 10 kts | 225° |
| 2026-04-25 06:44 | 52.46535 | -1.76069 | 301 ft | 9 kts | 172° |
| 2026-04-25 06:45 | 52.46524 | -1.76062 | 302 ft | 0 kts | 147° |
| 2026-04-25 06:46 | 52.46253 | -1.75770 | 303 ft | 105 kts | 147° |
| 2026-04-25 06:47 | 52.45518 | -1.74940 | 479 ft | 146 kts | 144° |
| 2026-04-25 06:47 | 52.44640 | -1.73929 | 707 ft | 163 kts | 145° |
| 2026-04-25 06:47 | 52.43658 | -1.72871 | 978 ft | 174 kts | 147° |
| 2026-04-25 06:47 | 52.42689 | -1.71805 | 1244 ft | 179 kts | 146° |
| 2026-04-25 06:48 | 52.41677 | -1.70696 | 1770 ft | 173 kts | 148° |
| 2026-04-25 06:48 | 52.40529 | -1.69862 | 1858 ft | 188 kts | 167° |
| 2026-04-25 06:48 | 52.39223 | -1.69896 | 1889 ft | 193 kts | 194° |
| 2026-04-25 06:48 | 52.38058 | -1.70877 | 2099 ft | 186 kts | 220° |
| 2026-04-25 06:49 | 52.36945 | -1.72006 | 2148 ft | 191 kts | 194° |
| 2026-04-25 06:49 | 52.35632 | -1.71835 | 2175 ft | 193 kts | 157° |
| 2026-04-25 06:49 | 52.34623 | -1.70420 | 2123 ft | 199 kts | 124° |
| 2026-04-25 06:49 | 52.34182 | -1.68282 | 1953 ft | 197 kts | 88° |
| 2026-04-25 06:50 | 52.34412 | -1.66120 | 2026 ft | 198 kts | 80° |
| 2026-04-25 06:50 | 52.34548 | -1.63970 | 2309 ft | 191 kts | 86° |
| 2026-04-25 06:50 | 52.34535 | -1.61791 | 2601 ft | 187 kts | 94° |
| 2026-04-25 06:50 | 52.34410 | -1.59709 | 3114 ft | 183 kts | 97° |
| 2026-04-25 06:51 | 52.34164 | -1.57693 | 3667 ft | 180 kts | 108° |
| 2026-04-25 06:51 | 52.33659 | -1.55813 | 4223 ft | 181 kts | 116° |
| 2026-04-25 06:51 | 52.33086 | -1.53965 | 4773 ft | 183 kts | 117° |
| 2026-04-25 06:51 | 52.32492 | -1.52102 | 5332 ft | 186 kts | 117° |
| 2026-04-25 06:52 | 52.31890 | -1.50215 | 5890 ft | 188 kts | 118° |
| 2026-04-25 06:52 | 52.31291 | -1.48334 | 6447 ft | 190 kts | 118° |
| 2026-04-25 06:52 | 52.30639 | -1.46434 | 6991 ft | 193 kts | 121° |
| 2026-04-25 06:52 | 52.29970 | -1.44595 | 7049 ft | 177 kts | 121° |
| 2026-04-25 06:53 | 52.29360 | -1.42924 | 7012 ft | 167 kts | 121° |
| 2026-04-25 06:53 | 52.28776 | -1.41318 | 7000 ft | 164 kts | 121° |
| 2026-04-25 06:53 | 52.28198 | -1.39711 | 6987 ft | 163 kts | 121° |
| 2026-04-25 06:53 | 52.27625 | -1.38116 | 6983 ft | 162 kts | 122° |
| 2026-04-25 06:54 | 52.26796 | -1.36934 | 6988 ft | 160 kts | 153° |
| 2026-04-25 06:54 | 52.25803 | -1.36096 | 6985 ft | 161 kts | 155° |
| 2026-04-25 06:54 | 52.24789 | -1.35324 | 6981 ft | 161 kts | 156° |
| 2026-04-25 06:54 | 52.23769 | -1.34582 | 6977 ft | 160 kts | 157° |
| 2026-04-25 06:55 | 52.22758 | -1.33864 | 6979 ft | 160 kts | 157° |
| 2026-04-25 06:55 | 52.21733 | -1.33143 | 6977 ft | 160 kts | 157° |
| 2026-04-25 06:55 | 52.20709 | -1.32426 | 6979 ft | 160 kts | 157° |
| 2026-04-25 06:55 | 52.19679 | -1.31705 | 6975 ft | 160 kts | 157° |
| 2026-04-25 06:56 | 52.18651 | -1.31051 | 6979 ft | 160 kts | 165° |
| 2026-04-25 06:56 | 52.17639 | -1.30482 | 6799 ft | 135 kts | 160° |
| 2026-04-25 06:56 | 52.16862 | -1.29980 | 6493 ft | 109 kts | 159° |
| 2026-04-25 06:56 | 52.16188 | -1.29652 | 6188 ft | 98 kts | 191° |
| 2026-04-25 06:57 | 52.15506 | -1.30355 | 6463 ft | 133 kts | 202° |
| 2026-04-25 06:57 | 52.14478 | -1.30679 | 6787 ft | 177 kts | 194° |
| 2026-04-25 06:57 | 52.13189 | -1.31438 | 6471 ft | 209 kts | 204° |
| 2026-04-25 06:57 | 52.11762 | -1.32036 | 6161 ft | 217 kts | 183° |
| 2026-04-25 06:58 | 52.10249 | -1.32102 | 5852 ft | 218 kts | 180° |
| 2026-04-25 06:58 | 52.08968 | -1.31931 | 5527 ft | 162 kts | 171° |
| 2026-04-25 06:58 | 52.07907 | -1.31658 | 5242 ft | 150 kts | 171° |
| 2026-04-25 06:58 | 52.06884 | -1.31383 | 4945 ft | 148 kts | 169° |
| 2026-04-25 06:59 | 52.05878 | -1.31103 | 4636 ft | 147 kts | 172° |
| 2026-04-25 06:59 | 52.04870 | -1.30882 | 4328 ft | 146 kts | 172° |
| 2026-04-25 06:59 | 52.03868 | -1.30671 | 4022 ft | 145 kts | 172° |
| 2026-04-25 06:59 | 52.02868 | -1.30443 | 3739 ft | 145 kts | 169° |
| 2026-04-25 07:00 | 52.01913 | -1.30179 | 3451 ft | 144 kts | 173° |
| 2026-04-25 07:00 | 52.00975 | -1.29722 | 3262 ft | 138 kts | 160° |
| 2026-04-25 07:00 | 52.00030 | -1.29519 | 3083 ft | 138 kts | 183° |
| 2026-04-25 07:00 | 51.99089 | -1.29789 | 2930 ft | 136 kts | 189° |
| 2026-04-25 07:01 | 51.98153 | -1.30022 | 2777 ft | 136 kts | 187° |
| 2026-04-25 07:01 | 51.97221 | -1.30223 | 2611 ft | 135 kts | 187° |
| 2026-04-25 07:01 | 51.96290 | -1.30449 | 2431 ft | 135 kts | 187° |
| 2026-04-25 07:01 | 51.95357 | -1.30519 | 2300 ft | 141 kts | 178° |
| 2026-04-25 07:02 | 51.94335 | -1.30418 | 2336 ft | 154 kts | 176° |
| 2026-04-25 07:02 | 51.93279 | -1.30345 | 2409 ft | 157 kts | 178° |
| 2026-04-25 07:02 | 51.92226 | -1.30348 | 2301 ft | 133 kts | 181° |
| 2026-04-25 07:02 | 51.91379 | -1.30401 | 1935 ft | 117 kts | 180° |
| 2026-04-25 07:03 | 51.90563 | -1.30454 | 1553 ft | 117 kts | 183° |
| 2026-04-25 07:03 | 51.89694 | -1.30555 | 1492 ft | 110 kts | 184° |
| 2026-04-25 07:03 | 51.88955 | -1.30657 | 1368 ft | 108 kts | 185° |
| 2026-04-25 07:03 | 51.88251 | -1.30801 | 1248 ft | 98 kts | 186° |
| 2026-04-25 07:04 | 51.87621 | -1.30932 | 1097 ft | 98 kts | 187° |
| 2026-04-25 07:04 | 51.86911 | -1.31088 | 1076 ft | 113 kts | 187° |
| 2026-04-25 07:04 | 51.86178 | -1.31237 | 1003 ft | 104 kts | 187° |
| 2026-04-25 07:04 | 51.85482 | -1.31414 | 793 ft | 99 kts | 191° |
| 2026-04-25 07:05 | 51.84843 | -1.31644 | 493 ft | 97 kts | 193° |
| 2026-04-25 07:05 | 51.84222 | -1.31842 | 289 ft | 86 kts | 192° |
| 2026-04-25 07:05 | 51.83775 | -1.31982 | 263 ft | 42 kts | 185° |
| 2026-04-25 07:05 | 51.83551 | -1.32046 | 262 ft | 30 kts | 192° |
| 2026-04-25 07:06 | 51.83363 | -1.32098 | 263 ft | 25 kts | 191° |
| 2026-04-25 07:06 | 51.83193 | -1.32149 | 261 ft | 25 kts | 192° |
| 2026-04-25 07:06 | 51.83083 | -1.32182 | 263 ft | 21 kts | 193° |
| 2026-04-25 07:06 | 51.82994 | -1.32143 | 262 ft | 10 kts | 112° |
| 2026-04-25 07:07 | 51.82984 | -1.32018 | 262 ft | 0 kts | 81° |
| 2026-04-25 07:07 | 51.82987 | -1.31992 | 262 ft | 2 kts | 80° |
| 2026-04-25 07:07 | 51.82988 | -1.31984 | 262 ft | 0 kts | 79° |
| 2026-04-25 07:08 | 51.82991 | -1.31955 | 262 ft | 6 kts | 82° |